East Orleans, MA

8:43 AM EDT on October 02, 2014 (GMT -0400)
Provincetown Municipal | Change Station
CLOSE
Current Station
Airport
Location: Provincetown,
Elevation: 7 ft
Nearby Weather Stations

Elev 7 ft 42.07 °N, 70.22 °W | Updated 8 minutes ago

Overcast
Overcast
59 °F
Feels Like 59 °F
N
16
Wind Variable Wind from NE
Gusts 24 mph

Today
High -- | Low -- °F
--% Chance of Precip.
Yesterday
High -- | Low -- °F
Precip. -- in
6:37 AM 6:19 PM
First Quarter, 58% visible
Pressure 30.12 in
Visibility 8.0 miles
Clouds Overcast 1800 ft
Dew Point 55 °F
Humidity 88%
Rainfall 0.00 in
Snow Depth Not available.
UV 0 out of 12
Pollen 2.00 out of 12
Air Quality Not available.
Flu Activity Not available.
METAR KPVC 021235Z 04014G21KT 8SM OVC018 15/13 A3012 RMK AO1

More Conditions Fewer Conditions

Pressure 30.12 in
Visibility 8.0 miles
Clouds Overcast 1800 ft
Dew Point 55 °F
Humidity 88%
Rainfall 0.00 in
Snow Depth Not available.
UV 0 out of 12
Pollen 2.00 out of 12
Air Quality Not available.
Flu Activity Not available.
METAR KPVC 021235Z 04014G21KT 8SM OVC018 15/13 A3012 RMK AO1

More Conditions Fewer Conditions

10-Day Weather Forecast

Almanac

Astronomy

Oct. 02, 2014 Rise Set
Actual Time 6:37 AM EDT 6:19 PM EDT
Civil Twilight 6:10 AM EDT 6:47 PM EDT
Nautical Twilight 5:37 AM EDT 7:19 PM EDT
Astronomical Twilight 5:05 AM EDT 7:52 PM EDT
Moon 2:28 PM EDT No Moon Set
Length of Visible Light 12h 37m
Length of Day
11h 42m
Tomorrow will be 2m 46s shorter.
First Quarter, 58% of the Moon is Illuminated
Today
First Quarter
Oct 8
Full
Oct 15
Last Quarter
Oct 23
New
Oct 30
First Quarter

Today's Extremes

State Highs State Lows

Community

WunderPhotos

Upload Photos

1,758,226 photos uploaded!

WunderBlogs® & News

Nearby

Air Quality

  Air Quality AQ Index Pollutant
Yesterday Good
OZONE
Thursday Good
PM2.5
Thursday Good
OZONE

Snow Depth

Station Depth Elevation
No new snow has been reported.

Earthquake Activity

City Distance Mag. Time & Date
No recent earthquake activity has been reported nearby.
Minimum magnitude displayed is 2.5.

Coastal Water Temperatures

Place Temperature
Nantucket Island, MA 64.9 °F
Woods Hole, MA 66.0 °F
Fall River, MA 66.9 °F
Boston, MA 62.1 °F

Nearby Weather Stations